createdAt,value
2018-11-10T00:01:48.436Z,24.40
2018-11-10T00:04:17.175Z,30.77
2018-11-10T00:06:45.747Z,29.17
2018-11-10T00:09:14.400Z,26.27
2018-11-10T00:11:43.547Z,35.23
2018-11-10T00:14:12.191Z,33.87
2018-11-10T00:16:40.894Z,27.47
2018-11-10T00:19:09.516Z,31.03
2018-11-10T00:21:38.189Z,33.23
2018-11-10T00:24:06.872Z,28.93
2018-11-10T00:26:35.547Z,42.77
2018-11-10T00:29:04.263Z,28.53
2018-11-10T00:31:32.941Z,29.93
2018-11-10T00:34:01.596Z,36.10
2018-11-10T00:36:30.259Z,31.00
2018-11-10T00:38:59.015Z,29.10
2018-11-10T00:41:27.683Z,33.40
2018-11-10T00:43:56.331Z,39.67
2018-11-10T00:46:25.021Z,38.77
2018-11-10T00:48:53.685Z,43.27
2018-11-10T00:51:22.369Z,38.67
2018-11-10T00:53:51.019Z,47.13
2018-11-10T00:56:19.697Z,42.60
2018-11-10T00:58:48.351Z,44.27
2018-11-10T01:01:17.041Z,45.28
2018-11-10T01:03:46.028Z,35.43
2018-11-10T01:06:14.751Z,27.40
2018-11-10T01:08:43.400Z,28.20
2018-11-10T01:11:12.056Z,33.03
2018-11-10T01:13:40.825Z,24.60
2018-11-10T01:16:09.487Z,23.17
2018-11-10T01:18:38.157Z,22.33
2018-11-10T01:21:06.824Z,33.20
2018-11-10T01:23:35.479Z,27.27
2018-11-10T01:26:04.323Z,31.37
2018-11-10T01:28:32.980Z,27.50
2018-11-10T01:31:01.664Z,24.27
2018-11-10T01:33:30.320Z,22.53
2018-11-10T01:35:58.996Z,28.00
2018-11-10T01:38:27.643Z,25.60
2018-11-10T01:40:56.349Z,26.57
2018-11-10T01:43:25.004Z,24.67
2018-11-10T01:45:53.681Z,27.13
2018-11-10T01:48:22.327Z,25.97
2018-11-10T01:50:50.980Z,29.80
2018-11-10T01:53:19.640Z,24.43
2018-11-10T01:55:48.295Z,27.87
2018-11-10T01:58:17.085Z,24.33
2018-11-10T02:00:46.652Z,23.83
2018-11-10T02:03:15.372Z,25.60
2018-11-10T02:05:44.024Z,17.17
2018-11-10T02:08:12.683Z,19.80
2018-11-10T02:10:41.332Z,21.07
2018-11-10T02:13:09.992Z,20.13
2018-11-10T02:15:38.641Z,20.27
2018-11-10T02:18:07.322Z,21.57
2018-11-10T02:20:35.967Z,27.47
2018-11-10T02:23:04.788Z,21.00
2018-11-10T02:25:34.009Z,28.30
2018-11-10T02:28:02.672Z,22.43
2018-11-10T02:30:31.328Z,21.70
2018-11-10T02:32:59.987Z,24.73
2018-11-10T02:35:28.657Z,21.70
2018-11-10T02:37:57.300Z,32.07
2018-11-10T02:40:25.948Z,25.93
2018-11-10T02:42:54.619Z,27.90
2018-11-10T02:45:23.349Z,27.80
2018-11-10T02:47:52.000Z,26.57
2018-11-10T02:50:20.657Z,24.53
2018-11-10T02:52:49.357Z,28.70
2018-11-10T02:55:17.960Z,21.50
2018-11-10T02:57:46.628Z,27.90
2018-11-10T03:00:15.524Z,25.57
2018-11-10T03:02:44.184Z,20.63
2018-11-10T03:05:12.831Z,28.20
2018-11-10T03:07:41.501Z,22.93
2018-11-10T03:10:10.993Z,27.93
2018-11-10T03:12:40.399Z,26.40
2018-11-10T03:15:10.008Z,30.57
2018-11-10T03:17:38.740Z,25.47
2018-11-10T03:20:10.752Z,29.27
2018-11-10T03:22:39.455Z,36.43
2018-11-10T03:25:08.419Z,28.20
2018-11-10T03:27:38.014Z,28.45
2018-11-10T03:30:06.744Z,28.30
2018-11-10T03:32:35.926Z,28.40
2018-11-10T03:35:04.931Z,24.80
2018-11-10T03:37:33.623Z,28.67
2018-11-10T03:40:02.585Z,30.33
2018-11-10T03:42:31.243Z,26.40
2018-11-10T03:44:59.910Z,25.57
2018-11-10T03:47:28.568Z,28.43
2018-11-10T03:49:58.128Z,24.87
2018-11-10T03:52:26.821Z,20.77
2018-11-10T03:54:55.480Z,21.70
2018-11-10T03:57:24.360Z,20.73
2018-11-10T03:59:52.979Z,23.60
2018-11-10T04:02:21.649Z,21.00
2018-11-10T04:04:50.299Z,19.03
2018-11-10T04:07:18.967Z,20.20
2018-11-10T04:09:47.632Z,17.67
2018-11-10T04:12:16.317Z,22.13
2018-11-10T04:14:44.988Z,22.77
2018-11-10T04:17:13.700Z,30.87
2018-11-10T04:19:42.396Z,33.00
2018-11-10T04:22:11.105Z,24.47
2018-11-10T04:24:39.813Z,24.03
2018-11-10T04:27:08.523Z,25.87
2018-11-10T04:29:37.194Z,24.70
2018-11-10T04:32:05.867Z,27.43
2018-11-10T04:34:34.612Z,27.53
2018-11-10T04:37:03.270Z,23.33
2018-11-10T04:39:31.932Z,20.73
2018-11-10T04:42:00.600Z,26.33
2018-11-10T04:44:29.280Z,28.00
2018-11-10T04:46:58.021Z,29.93
2018-11-10T04:49:26.689Z,31.33
2018-11-10T04:51:55.396Z,27.23
2018-11-10T04:54:24.063Z,32.63
2018-11-10T04:56:52.752Z,31.50
2018-11-10T04:59:21.424Z,28.65
2018-11-10T05:01:50.075Z,28.27
2018-11-10T05:04:18.739Z,27.50
2018-11-10T05:06:47.399Z,26.47
2018-11-10T05:09:16.065Z,25.77
2018-11-10T05:11:44.719Z,22.50
2018-11-10T05:14:13.401Z,18.27
2018-11-10T05:16:42.059Z,25.33
2018-11-10T05:19:10.768Z,22.87
2018-11-10T05:21:39.440Z,24.30
2018-11-10T05:24:08.782Z,24.07
2018-11-10T05:26:37.456Z,29.47
2018-11-10T05:29:06.755Z,26.97
2018-11-10T05:31:35.415Z,22.77
2018-11-10T05:34:04.133Z,28.80
2018-11-10T05:36:32.792Z,24.03
2018-11-10T05:39:01.456Z,29.90
2018-11-10T05:41:30.111Z,24.97
2018-11-10T05:43:58.771Z,23.23
2018-11-10T05:46:27.440Z,27.53
2018-11-10T05:48:56.099Z,30.73
2018-11-10T05:51:24.761Z,34.73
2018-11-10T05:53:53.453Z,30.20
2018-11-10T05:56:22.225Z,26.77
2018-11-10T05:58:50.901Z,25.90
2018-11-10T06:01:19.559Z,25.67
2018-11-10T06:03:48.231Z,21.37
2018-11-10T06:06:22.522Z,28.63
2018-11-10T06:08:51.188Z,30.37
2018-11-10T06:11:19.840Z,29.80
2018-11-10T06:13:48.508Z,29.77
2018-11-10T06:16:17.312Z,21.83
2018-11-10T06:18:45.935Z,30.57
2018-11-10T06:21:14.532Z,25.60
2018-11-10T06:23:43.199Z,25.03
2018-11-10T06:26:11.904Z,32.53
2018-11-10T06:28:40.597Z,26.53
2018-11-10T06:31:09.344Z,28.10
2018-11-10T06:33:38.066Z,29.53
2018-11-10T06:36:07.181Z,29.23
2018-11-10T06:38:35.909Z,42.67
2018-11-10T06:41:04.887Z,38.67
2018-11-10T06:43:33.556Z,36.90
2018-11-10T06:46:02.328Z,35.50
2018-11-10T06:48:31.052Z,45.43
2018-11-10T06:50:59.712Z,34.07
2018-11-10T06:53:28.372Z,37.60
2018-11-10T06:55:57.027Z,43.40
2018-11-10T06:58:25.700Z,46.03
2018-11-10T07:00:54.365Z,45.93
2018-11-10T07:03:23.048Z,44.77
2018-11-10T07:05:51.717Z,51.67
2018-11-10T07:08:20.372Z,61.30
2018-11-10T07:10:49.041Z,65.37
2018-11-10T07:13:17.695Z,58.97
2018-11-10T07:15:46.539Z,67.23
2018-11-10T07:18:15.319Z,62.40
2018-11-10T07:20:43.904Z,70.30
2018-11-10T07:23:12.559Z,63.20
2018-11-10T07:25:41.224Z,71.30
2018-11-10T07:28:09.889Z,64.40
2018-11-10T07:30:38.584Z,64.07
2018-11-10T07:33:07.251Z,85.77
2018-11-10T07:35:36.018Z,72.23
2018-11-10T07:38:04.941Z,63.03
2018-11-10T07:40:33.603Z,74.93
2018-11-10T07:43:02.326Z,81.30
2018-11-10T07:45:30.941Z,74.13
2018-11-10T07:47:59.604Z,61.83
2018-11-10T07:50:28.280Z,79.97
2018-11-10T07:52:56.936Z,76.43
2018-11-10T07:55:25.607Z,63.03
2018-11-10T07:57:54.263Z,55.57
2018-11-10T08:00:22.935Z,62.97
2018-11-10T08:02:51.608Z,50.33
2018-11-10T08:05:20.390Z,53.53
2018-11-10T08:07:49.043Z,51.10
2018-11-10T08:10:17.766Z,54.67
2018-11-10T08:12:46.440Z,36.30
2018-11-10T08:15:16.415Z,42.17
2018-11-10T08:17:45.081Z,36.53
2018-11-10T08:20:14.092Z,34.70
2018-11-10T08:22:42.751Z,31.53
2018-11-10T08:25:12.842Z,39.07
2018-11-10T08:27:41.517Z,39.73
2018-11-10T08:30:11.505Z,45.65
2018-11-10T08:32:40.491Z,37.03
2018-11-10T08:35:11.173Z,31.57
2018-11-10T08:37:40.353Z,36.23
2018-11-10T08:40:11.348Z,35.50
2018-11-10T08:42:40.017Z,28.57
2018-11-10T08:45:10.056Z,33.07
2018-11-10T08:47:38.828Z,32.17
2018-11-10T08:50:08.331Z,28.77
2018-11-10T08:52:37.107Z,28.13
2018-11-10T08:55:06.551Z,28.27
2018-11-10T08:57:35.279Z,27.13
2018-11-10T09:00:04.652Z,31.53
2018-11-10T09:02:33.299Z,29.57
2018-11-10T09:05:01.964Z,27.53
2018-11-10T09:07:30.615Z,30.67
2018-11-10T09:09:59.295Z,32.93
2018-11-10T09:12:27.931Z,32.27
2018-11-10T09:14:56.624Z,26.03
2018-11-10T09:17:25.351Z,35.83
2018-11-10T09:19:53.995Z,27.87
2018-11-10T09:22:22.646Z,31.93
2018-11-10T09:24:51.308Z,65.47
2018-11-10T09:27:19.951Z,63.20
2018-11-10T09:29:48.656Z,218.97
2018-11-10T09:32:17.316Z,53.57
2018-11-10T09:34:46.288Z,33.53
2018-11-10T09:37:14.940Z,38.47
2018-11-10T09:39:43.696Z,30.83
2018-11-10T09:42:12.381Z,233.43
2018-11-10T09:44:41.053Z,193.93
2018-11-10T09:47:09.760Z,102.40
2018-11-10T09:49:38.576Z,76.27
2018-11-10T09:52:07.252Z,48.37
2018-11-10T09:54:36.012Z,45.80
2018-11-10T09:57:05.311Z,39.80
2018-11-10T09:59:40.759Z,32.77
2018-11-10T10:02:09.791Z,37.47
2018-11-10T10:04:38.256Z,28.60
2018-11-10T10:07:07.179Z,38.13
2018-11-10T10:09:35.849Z,31.43
2018-11-10T10:12:04.620Z,30.33
2018-11-10T10:14:33.284Z,29.30
2018-11-10T10:17:01.946Z,23.57
2018-11-10T10:19:30.603Z,31.13
2018-11-10T10:21:59.312Z,45.73
2018-11-10T10:24:28.009Z,30.50
2018-11-10T10:26:56.680Z,25.93
2018-11-10T10:29:25.367Z,40.10
2018-11-10T10:31:54.036Z,24.13
2018-11-10T10:34:22.777Z,26.20
2018-11-10T10:36:51.351Z,25.50
2018-11-10T10:39:20.023Z,25.23
2018-11-10T10:41:48.663Z,24.70
2018-11-10T10:44:17.315Z,24.63
2018-11-10T10:46:45.981Z,20.07
2018-11-10T10:49:14.714Z,23.63
2018-11-10T10:51:43.292Z,25.17
2018-11-10T10:54:11.939Z,20.00
2018-11-10T10:56:40.603Z,17.27
2018-11-10T10:59:09.387Z,19.60
2018-11-10T11:01:43.639Z,16.60
2018-11-10T11:04:17.939Z,13.60
2018-11-10T11:06:46.617Z,18.67
2018-11-10T11:09:15.313Z,15.83
2018-11-10T11:11:44.024Z,16.03
2018-11-10T11:14:12.756Z,14.43
2018-11-10T11:16:41.464Z,13.77
2018-11-10T11:19:10.121Z,17.27
2018-11-10T11:21:39.694Z,13.97
2018-11-10T11:24:08.301Z,14.97
2018-11-10T11:26:36.969Z,13.87
2018-11-10T11:29:05.657Z,11.23
2018-11-10T11:31:34.295Z,13.47
2018-11-10T11:34:02.947Z,10.87
2018-11-10T11:36:31.628Z,11.03
2018-11-10T11:39:00.275Z,11.23
2018-11-10T11:41:29.067Z,13.93
2018-11-10T11:43:57.596Z,10.00
2018-11-10T11:46:26.281Z,12.73
2018-11-10T11:48:54.939Z,11.70
2018-11-10T11:51:23.657Z,9.57
2018-11-10T11:53:52.311Z,10.87
2018-11-10T11:56:20.982Z,18.30
2018-11-10T11:58:49.647Z,12.23
2018-11-10T12:01:18.324Z,10.13
2018-11-10T12:03:47.027Z,11.57
2018-11-10T12:06:15.779Z,12.77
2018-11-10T12:08:44.462Z,12.13
2018-11-10T12:11:13.152Z,9.47
2018-11-10T12:13:41.812Z,9.23
2018-11-10T12:16:10.505Z,10.80
2018-11-10T12:18:40.404Z,12.03
2018-11-10T12:21:10.004Z,9.17
2018-11-10T12:23:38.736Z,11.60
2018-11-10T12:26:07.409Z,10.87
2018-11-10T12:28:36.073Z,8.53
2018-11-10T12:31:05.203Z,9.60
2018-11-10T12:33:33.863Z,9.40
2018-11-10T12:36:02.527Z,9.47
2018-11-10T12:38:31.235Z,9.97
2018-11-10T12:40:59.869Z,10.30
2018-11-10T12:43:28.532Z,12.80
2018-11-10T12:45:57.207Z,12.17
2018-11-10T12:48:25.869Z,13.53
2018-11-10T12:50:54.526Z,15.03
2018-11-10T12:53:23.191Z,14.73
2018-11-10T12:55:51.843Z,10.03
2018-11-10T12:58:20.528Z,14.57
2018-11-10T13:00:49.196Z,12.67
2018-11-10T13:03:17.899Z,13.43
2018-11-10T13:05:46.607Z,13.70
2018-11-10T13:08:15.454Z,16.77
2018-11-10T13:10:43.988Z,13.63
2018-11-10T13:13:12.643Z,12.20
2018-11-10T13:15:41.356Z,18.10
2018-11-10T13:18:10.485Z,18.05
2018-11-10T13:20:39.191Z,11.33
2018-11-10T13:23:07.907Z,14.50
2018-11-10T13:25:36.615Z,16.60
2018-11-10T13:28:05.287Z,19.97
2018-11-10T13:30:33.960Z,25.53
2018-11-10T13:33:02.639Z,42.43
2018-11-10T13:35:31.308Z,115.00
2018-11-10T13:38:00.134Z,73.93
2018-11-10T13:40:28.732Z,174.60
2018-11-10T13:42:57.444Z,36.35
2018-11-10T13:45:26.083Z,29.27
2018-11-10T13:47:54.760Z,27.80
2018-11-10T13:50:23.431Z,19.87
2018-11-10T13:52:52.588Z,17.20
2018-11-10T13:55:20.799Z,15.83
2018-11-10T13:57:49.468Z,15.80
2018-11-10T14:00:18.892Z,14.30
2018-11-10T14:02:47.551Z,17.40
2018-11-10T14:05:16.255Z,24.37
2018-11-10T14:07:44.924Z,21.50
2018-11-10T14:10:14.721Z,16.50
2018-11-10T14:12:44.074Z,19.97
2018-11-10T14:15:12.735Z,24.47
2018-11-10T14:17:42.144Z,23.97
2018-11-10T14:20:12.853Z,22.55
2018-11-10T14:22:41.531Z,21.80
2018-11-10T14:25:12.283Z,18.37
2018-11-10T14:27:41.795Z,16.97
2018-11-10T14:30:12.816Z,20.95
2018-11-10T14:32:42.003Z,30.83
2018-11-10T14:35:11.631Z,65.12
2018-11-10T14:37:41.041Z,55.88
2018-11-10T14:40:11.664Z,30.73
2018-11-10T14:42:41.696Z,31.37
2018-11-10T14:45:12.395Z,42.65
2018-11-10T14:47:41.615Z,20.57
2018-11-10T14:50:12.030Z,22.90
2018-11-10T14:52:41.568Z,18.80
2018-11-10T14:55:11.752Z,17.80
2018-11-10T14:57:41.493Z,15.50
2018-11-10T15:00:15.247Z,15.53
2018-11-10T15:02:43.913Z,16.37
2018-11-10T15:05:13.256Z,16.30
2018-11-10T15:07:42.691Z,19.37
2018-11-10T15:10:12.673Z,14.53
2018-11-10T15:12:41.985Z,15.57
2018-11-10T15:15:12.241Z,17.32
2018-11-10T15:17:41.645Z,18.77
2018-11-10T15:20:12.532Z,20.97
2018-11-10T15:22:41.318Z,28.05
2018-11-10T15:25:11.618Z,20.37
2018-11-10T15:27:40.642Z,41.67
2018-11-10T15:30:16.248Z,52.13
2018-11-10T15:32:45.688Z,39.40
2018-11-10T15:35:15.598Z,30.10
2018-11-10T15:37:45.670Z,27.33
2018-11-10T15:40:15.224Z,18.43
2018-11-10T15:42:43.949Z,19.80
2018-11-10T15:45:13.617Z,35.70
2018-11-10T15:47:42.711Z,54.60
2018-11-10T15:50:13.050Z,42.87
2018-11-10T15:52:42.759Z,29.43
2018-11-10T15:55:12.243Z,117.50
2018-11-10T15:57:42.065Z,76.70
2018-11-10T16:00:15.021Z,84.37
2018-11-10T16:02:43.678Z,38.60
2018-11-10T16:05:12.767Z,31.57
2018-11-10T16:07:41.759Z,22.65
2018-11-10T16:10:10.662Z,23.60
2018-11-10T16:12:39.416Z,19.43
2018-11-10T16:15:10.008Z,20.53
2018-11-10T16:17:39.015Z,33.83
2018-11-10T16:20:10.955Z,21.20
2018-11-10T16:22:39.669Z,22.97
2018-11-10T16:25:09.060Z,27.13
2018-11-10T16:27:37.944Z,24.80
2018-11-10T16:30:08.406Z,26.27
2018-11-10T16:32:37.151Z,39.03
2018-11-10T16:35:05.976Z,19.03
2018-11-10T16:37:34.645Z,30.17
2018-11-10T16:40:03.552Z,29.53
2018-11-10T16:42:32.219Z,27.17
2018-11-10T16:45:01.056Z,19.23
2018-11-10T16:47:29.567Z,25.83
2018-11-10T16:49:58.236Z,18.70
2018-11-10T16:52:26.941Z,18.90
2018-11-10T16:54:55.651Z,20.80
2018-11-10T16:57:24.260Z,19.50
2018-11-10T16:59:53.559Z,29.10
2018-11-10T17:02:22.320Z,33.63
2018-11-10T17:04:51.089Z,38.50
2018-11-10T17:07:19.739Z,33.07
2018-11-10T17:09:48.404Z,22.62
2018-11-10T17:12:17.232Z,26.30
2018-11-10T17:14:45.968Z,27.37
2018-11-10T17:17:14.633Z,27.37
2018-11-10T17:19:43.299Z,29.20
2018-11-10T17:22:12.262Z,32.10
2018-11-10T17:24:40.859Z,21.63
2018-11-10T17:27:24.448Z,19.77
2018-11-10T17:29:53.116Z,20.53
2018-11-10T17:32:21.863Z,22.10
2018-11-10T17:34:50.540Z,19.03
2018-11-10T17:37:19.194Z,22.10
2018-11-10T17:39:48.030Z,27.10
2018-11-10T17:42:16.591Z,31.60
2018-11-10T17:44:45.251Z,38.43
2018-11-10T17:47:13.964Z,50.57
2018-11-10T17:49:42.640Z,38.63
2018-11-10T17:52:11.327Z,44.40
2018-11-10T17:54:40.010Z,41.83
2018-11-10T17:57:08.640Z,35.57
2018-11-10T17:59:37.312Z,28.15
2018-11-10T18:02:06.065Z,30.33
2018-11-10T18:04:34.675Z,30.30
2018-11-10T18:07:03.336Z,29.57
2018-11-10T18:09:32.012Z,29.40
2018-11-10T18:12:00.684Z,24.97
2018-11-10T18:14:29.356Z,29.27
2018-11-10T18:16:58.025Z,29.53
2018-11-10T18:19:26.692Z,32.23
2018-11-10T18:21:55.339Z,22.07
2018-11-10T18:24:24.024Z,27.83
2018-11-10T18:26:52.700Z,25.10
2018-11-10T18:29:21.376Z,24.35
2018-11-10T18:31:50.036Z,24.20
2018-11-10T18:34:18.717Z,29.03
2018-11-10T18:36:47.379Z,33.77
2018-11-10T18:39:16.537Z,30.97
2018-11-10T18:41:45.189Z,33.23
2018-11-10T18:44:13.867Z,27.17
2018-11-10T18:46:42.757Z,29.82
2018-11-10T18:49:11.391Z,30.40
2018-11-10T18:51:40.048Z,30.73
2018-11-10T18:54:08.711Z,23.93
2018-11-10T18:56:37.376Z,45.57
2018-11-10T18:59:06.244Z,37.53
2018-11-10T19:01:34.907Z,29.33
2018-11-10T19:04:03.565Z,32.03
2018-11-10T19:06:32.233Z,28.73
2018-11-10T19:09:00.895Z,23.73
2018-11-10T19:11:29.542Z,25.00
2018-11-10T19:13:58.271Z,27.00
2018-11-10T19:16:26.935Z,23.83
2018-11-10T19:18:55.600Z,24.87
2018-11-10T19:21:24.263Z,37.23
2018-11-10T19:23:52.932Z,38.37
2018-11-10T19:26:21.591Z,39.20
2018-11-10T19:28:50.264Z,50.97
2018-11-10T19:31:18.924Z,41.70
2018-11-10T19:33:47.592Z,46.57
2018-11-10T19:36:16.268Z,39.10
2018-11-10T19:38:44.932Z,38.27
2018-11-10T19:41:13.602Z,41.23
2018-11-10T19:43:43.179Z,40.03
2018-11-10T19:46:11.860Z,36.60
2018-11-10T19:48:40.512Z,43.03
2018-11-10T19:51:11.703Z,36.23
2018-11-10T19:53:40.792Z,36.53
2018-11-10T19:56:10.205Z,34.50
2018-11-10T19:58:38.893Z,35.70
2018-11-10T20:01:08.375Z,23.17
2018-11-10T20:03:37.040Z,26.83
2018-11-10T20:06:05.708Z,26.03
2018-11-10T20:08:34.427Z,26.13
2018-11-10T20:11:03.105Z,27.53
2018-11-10T20:13:31.768Z,32.10
2018-11-10T20:16:00.432Z,30.20
2018-11-10T20:18:29.101Z,21.73
2018-11-10T20:20:57.767Z,31.10
2018-11-10T20:23:26.424Z,24.40
2018-11-10T20:25:55.084Z,27.50
2018-11-10T20:28:23.739Z,31.00
2018-11-10T20:30:52.403Z,26.97
2018-11-10T20:33:21.063Z,32.33
2018-11-10T20:35:49.805Z,25.07
2018-11-10T20:38:18.455Z,33.63
2018-11-10T20:40:47.132Z,31.07
2018-11-10T20:43:15.792Z,27.60
2018-11-10T20:45:44.472Z,37.00
2018-11-10T20:48:13.779Z,26.07
2018-11-10T20:50:42.455Z,30.53
2018-11-10T20:53:11.161Z,31.97
2018-11-10T20:55:39.831Z,31.43
2018-11-10T20:58:08.501Z,31.43
2018-11-10T21:00:37.201Z,28.33
2018-11-10T21:03:05.845Z,30.63
2018-11-10T21:05:34.544Z,24.93
2018-11-10T21:08:03.181Z,32.57
2018-11-10T21:10:31.858Z,29.73
2018-11-10T21:13:00.621Z,27.97
2018-11-10T21:15:29.195Z,26.77
2018-11-10T21:17:57.895Z,37.00
2018-11-10T21:20:26.529Z,36.43
2018-11-10T21:22:55.187Z,31.93
2018-11-10T21:25:23.865Z,37.53
2018-11-10T21:27:52.527Z,37.50
2018-11-10T21:30:21.444Z,32.53
2018-11-10T21:32:50.287Z,32.67
2018-11-10T21:35:19.170Z,32.93
2018-11-10T21:37:47.736Z,29.93
2018-11-10T21:40:18.532Z,39.27
2018-11-10T21:42:47.321Z,28.73
2018-11-10T21:45:16.724Z,34.10
2018-11-10T21:47:45.600Z,44.37
2018-11-10T21:50:15.643Z,39.00
2018-11-10T21:52:44.915Z,47.13
2018-11-10T21:55:15.555Z,87.25
2018-11-10T21:57:45.063Z,149.17
2018-11-10T22:00:16.201Z,104.32
2018-11-10T22:02:45.380Z,133.33
2018-11-10T22:05:14.600Z,73.17
2018-11-10T22:07:44.220Z,152.20
2018-11-10T22:10:14.112Z,99.80
2018-11-10T22:12:43.120Z,53.13
2018-11-10T22:15:16.192Z,56.53
2018-11-10T22:17:45.498Z,55.83
2018-11-10T22:20:15.604Z,57.23
2018-11-10T22:22:44.419Z,52.33
2018-11-10T22:25:13.588Z,47.83
2018-11-10T22:27:43.615Z,52.48
2018-11-10T22:30:13.523Z,48.30
2018-11-10T22:32:42.651Z,51.97
2018-11-10T22:35:11.605Z,54.87
2018-11-10T22:37:40.403Z,43.60
2018-11-10T22:40:11.039Z,57.27
2018-11-10T22:42:40.131Z,53.73
2018-11-10T22:45:10.231Z,48.73
2018-11-10T22:47:39.771Z,44.13
2018-11-10T22:50:10.524Z,38.43
2018-11-10T22:52:39.186Z,55.03
2018-11-10T22:55:08.668Z,42.43
2018-11-10T22:57:37.332Z,47.37
2018-11-10T23:00:09.095Z,53.50
2018-11-10T23:02:37.764Z,51.90
2018-11-10T23:05:06.884Z,44.87
2018-11-10T23:07:35.559Z,45.93
2018-11-10T23:10:04.379Z,47.93
2018-11-10T23:12:33.070Z,53.93
2018-11-10T23:15:01.719Z,47.30
2018-11-10T23:17:30.380Z,45.13
2018-11-10T23:19:59.031Z,45.30
2018-11-10T23:22:27.687Z,46.93
2018-11-10T23:24:56.343Z,49.23
2018-11-10T23:27:25.003Z,46.20
2018-11-10T23:29:53.651Z,45.43
2018-11-10T23:32:22.351Z,42.40
2018-11-10T23:34:51.028Z,50.57
2018-11-10T23:37:19.701Z,42.87
2018-11-10T23:39:48.359Z,45.07
2018-11-10T23:42:17.033Z,45.13
2018-11-10T23:44:45.708Z,41.83
2018-11-10T23:47:14.831Z,53.63
2018-11-10T23:49:43.684Z,49.97
2018-11-10T23:52:12.347Z,46.77
2018-11-10T23:54:41.022Z,41.33
2018-11-10T23:57:09.693Z,51.93
2018-11-10T23:59:38.348Z,41.33
